Latest Weather Observations for Coonabarabran Airport

IDN60801

Issued at 11:02 am EST Saturday 5 September 2015 (issued every 30 minutes, with the page automatically refreshed every 10 minutes)

About weather observations | Map of weather stations | Latest weather observations for NSW | Other Formats
Station Details ID: 064017 Name: COONABARABRAN AIRPORT AWS Lat: -31.33 Lon: 149.27 Height: 645.0 m
Data from the previous 72 hours. | See also: Recent months at Coonabarabran Airport
Date/Time
EST
Temp
°C
App
Temp
°C
Dew
Point
Rel
Hum
%
Delta-T
°C
Wind Press
QNH
hPa
Press
MSL
hPa
Rain
since 9 am
mm
Dir
 
Spd
km/h
Gust
km/h
Spd
kts
Gust
kts
05/11:00am 15.9 14.3 8.2 60 4.0 NW 6 13 3 7 1022.4 1021.3 -
05/10:30am 15.4 13.8 8.6 64 3.6 S 7 13 4 7 1022.9 1021.7 0.0
05/10:00am 14.8 12.9 7.4 61 3.8 SE 7 15 4 8 1023.1 1021.9 0.0
05/09:30am 13.8 12.2 8.8 72 2.6 SSW 7 13 4 7 1023.2 1022.0 0.0
05/09:00am 13.1 11.1 8.8 75 2.2 SSW 9 15 5 8 1023.2 1022.0 0.2
05/08:30am 12.6 11.2 8.7 77 2.0 S 6 11 3 6 1023.0 1021.8 0.2
05/08:00am 11.7 9.9 7.8 77 2.0 SSW 7 15 4 8 1022.7 1021.5 0.2
05/07:30am 11.1 9.4 8.5 84 1.3 SW 7 15 4 8 1022.7 1021.5 0.2
05/07:00am 10.0 7.7 7.4 84 1.3 SSW 9 15 5 8 1022.3 1021.1 0.2
05/06:30am 9.5 7.7 7.1 85 1.2 SW 6 11 3 6 1021.9 1020.7 0.2
05/06:00am 9.5 7.5 7.3 86 1.1 SSW 7 15 4 8 1021.7 1020.5 0.2
05/05:30am 9.3 7.0 7.4 88 0.9 WSW 9 19 5 10 1021.4 1020.2 0.0
05/05:00am 9.4 7.5 7.7 89 0.8 SW 7 13 4 7 1021.1 1019.8 0.0
05/04:30am 9.0 6.7 7.3 89 0.8 SSW 9 17 5 9 1020.9 1019.6 0.0
05/04:00am 9.0 6.6 7.1 88 0.9 SSW 9 11 5 6 1020.8 1019.5 0.0
05/03:30am 9.1 6.7 7.2 88 0.9 SSW 9 11 5 6 1020.6 1019.4 0.0
05/03:00am 9.6 7.2 7.2 85 1.2 SSW 9 19 5 10 1020.6 1019.4 0.0
05/02:30am 10.2 8.0 7.8 85 1.2 SSW 9 20 5 11 1020.8 1019.5 0.0
05/02:00am 9.7 7.8 7.6 87 1.0 SW 7 13 4 7 1021.2 1020.0 0.0
05/01:30am 9.7 7.4 7.6 87 1.0 WSW 9 15 5 8 1021.5 1020.3 0.0
05/01:00am 9.4 7.0 7.2 86 1.1 SW 9 11 5 6 1021.5 1020.3 0.0
05/12:30am 10.1 7.9 7.7 85 1.2 SW 9 15 5 8 1021.8 1020.6 0.0
05/12:00am 9.8 7.5 7.4 85 1.2 SW 9 13 5 7 1022.0 1020.8 0.0
 
Date/Time
EST
Temp
°C
App
Temp
°C
Dew
Point
Rel
Hum
%
Delta-T
°C
Wind Press
QNH
hPa
Press
MSL
hPa
Rain
since 9 am
mm
Dir
 
Spd
km/h
Gust
km/h
Spd
kts
Gust
kts
04/11:30pm 10.0 7.8 7.8 86 1.1 SSW 9 17 5 9 1022.2 1021.0 0.0
04/11:00pm 10.0 7.7 7.6 85 1.2 SSW 9 13 5 7 1022.3 1021.1 0.0
04/10:30pm 10.3 8.0 7.5 83 1.4 SW 9 11 5 6 1022.5 1021.3 0.0
04/10:00pm 10.6 8.4 7.7 82 1.4 SSW 9 17 5 9 1022.5 1021.3 0.0
04/09:30pm 11.0 8.8 7.9 81 1.6 SSW 9 15 5 8 1022.3 1021.1 0.0
04/09:00pm 10.8 8.2 7.7 81 1.5 S 11 11 6 6 1022.2 1021.0 0.0
04/08:30pm 11.0 8.7 7.3 78 1.8 SSW 9 11 5 6 1022.0 1020.8 0.0
04/08:00pm 11.6 9.3 7.3 75 2.1 S 9 13 5 7 1021.9 1020.7 0.0
04/07:30pm 11.5 9.2 7.4 76 2.0 SSE 9 13 5 7 1021.6 1020.4 0.0
04/07:00pm 11.9 9.5 7.0 72 2.4 SE 9 11 5 6 1021.5 1020.3 0.0
04/06:30pm 12.0 9.8 7.7 75 2.2 SE 9 17 5 9 1021.4 1020.2 0.0
04/06:00pm 12.5 10.3 8.0 74 2.3 SSE 9 11 5 6 1021.4 1020.2 0.0
04/05:30pm 12.7 10.5 7.8 72 2.5 SSE 9 11 5 6 1021.2 1020.0 0.0
04/05:00pm 14.0 11.8 8.0 67 3.1 S 9 13 5 7 1021.1 1019.8 0.0
04/04:30pm 15.9 13.6 7.4 57 4.4 S 9 19 5 10 1021.0 1019.7 0.0
04/04:00pm 16.4 14.8 6.5 52 5.0 SSW 4 13 2 7 1021.0 1019.7 0.0
04/03:30pm 16.0 14.2 7.0 55 4.6 SW 6 13 3 7 1021.0 1019.7 0.0
04/03:00pm 14.9 12.2 7.2 60 3.9 SE 11 13 6 7 1020.9 1019.6 0.0
04/02:30pm 16.1 14.1 7.3 56 4.5 SE 7 15 4 8 1020.9 1019.6 0.0
04/02:00pm 16.1 14.3 7.1 55 4.6 W 6 13 3 7 1021.2 1020.0 0.0
04/01:30pm 14.6 12.2 7.2 61 3.8 NE 9 13 5 7 1021.4 1020.2 0.0
04/01:00pm 14.8 13.0 7.1 60 3.9 ENE 6 15 3 8 1021.7 1020.5 0.0
04/12:30pm 14.6 12.3 7.4 62 3.7 NE 9 15 5 8 1021.8 1020.6 0.0
04/12:00pm 13.8 11.6 8.0 68 3.0 S 9 19 5 10 1021.8 1020.6 0.0
04/11:30am 13.9 11.8 8.1 68 3.0 SSE 9 15 5 8 1022.0 1020.8 0.0
04/11:00am 12.7 9.6 7.4 70 2.7 SE 13 19 7 10 1022.3 1021.1 0.0
04/10:30am 12.3 9.4 8.0 75 2.2 SE 13 22 7 12 1022.6 1021.4 0.0
04/10:00am 11.6 8.7 8.1 79 1.8 S 13 15 7 8 1022.7 1021.5 0.0
04/09:30am 10.0 7.1 8.1 88 1.0 SSW 13 19 7 10 1022.6 1021.4 0.0
04/09:00am 8.9 5.6 8.1 95 0.4 SSW 15 19 8 10 1022.2 1021.0 6.0
04/08:30am 7.8 3.4 7.4 97 0.2 S 20 24 11 13 1022.2 1021.0 6.0
04/08:00am 7.7 3.9 7.6 99 0.0 S 17 20 9 11 1021.8 1020.6 6.0
04/07:30am 7.2 3.3 6.9 98 0.1 S 17 20 9 11 1021.4 1020.2 6.0
04/07:00am 7.0 3.4 6.7 98 0.1 S 15 17 8 9 1021.1 1019.8 6.0
04/06:30am 6.4 3.0 6.0 97 0.2 SSW 13 19 7 10 1020.6 1019.4 6.0
04/06:00am 6.6 3.3 6.3 98 0.1 SSW 13 19 7 10 1019.9 1018.7 6.0
04/05:30am 6.4 2.7 6.1 98 0.1 SSW 15 17 8 9 1019.4 1018.1 6.0
04/05:00am 6.6 2.9 6.2 97 0.2 SSW 15 20 8 11 1019.2 1017.9 6.0
04/04:30am 6.5 3.5 5.9 96 0.3 SSW 11 15 6 8 1018.7 1017.5 6.0
04/04:00am 6.7 3.3 6.0 95 0.3 SSW 13 17 7 9 1018.5 1017.3 6.0
04/03:30am 7.0 3.3 6.1 94 0.4 SSW 15 20 8 11 1018.5 1017.3 6.0
04/03:00am 7.3 4.1 6.7 96 0.3 SSW 13 20 7 11 1018.3 1017.0 6.0
04/02:30am 7.1 3.0 6.4 95 0.3 SSW 17 24 9 13 1018.1 1016.8 6.0
04/02:00am 7.6 2.7 6.7 94 0.4 SSW 22 30 12 16 1018.2 1016.9 6.0
04/01:30am 7.9 3.4 7.0 94 0.4 SSW 20 28 11 15 1018.6 1017.4 6.0
04/01:00am 8.0 3.5 6.8 92 0.6 SSW 20 30 11 16 1018.6 1017.4 6.0
04/12:30am 7.9 3.3 6.7 92 0.6 SSW 20 28 11 15 1018.7 1017.5 6.0
04/12:00am 7.9 3.9 6.7 92 0.6 SSW 17 28 9 15 1018.5 1017.3 6.0
 
Date/Time
EST
Temp
°C
App
Temp
°C
Dew
Point
Rel
Hum
%
Delta-T
°C
Wind Press
QNH
hPa
Press
MSL
hPa
Rain
since 9 am
mm
Dir
 
Spd
km/h
Gust
km/h
Spd
kts
Gust
kts
03/11:30pm 7.8 3.4 6.6 92 0.6 SSW 19 26 10 14 1018.2 1016.9 6.0
03/11:00pm 7.7 2.7 6.6 93 0.5 S 22 32 12 17 1017.9 1016.6 6.0
03/10:30pm 7.9 2.2 6.7 92 0.6 SSW 26 37 14 20 1017.9 1016.6 6.0
03/10:00pm 7.9 2.2 6.8 93 0.5 SSW 26 39 14 21 1017.6 1016.3 6.0
03/09:30pm 8.3 4.0 7.2 93 0.5 SW 19 28 10 15 1017.1 1015.9 6.0
03/09:00pm 8.4 3.1 7.0 91 0.7 SW 24 32 13 17 1016.7 1015.4 6.0
03/08:30pm 8.6 2.6 6.9 89 0.8 SW 28 43 15 23 1016.5 1015.2 6.0
03/08:00pm 8.6 3.7 7.1 90 0.7 SW 22 30 12 16 1016.2 1014.9 6.0
03/07:30pm 8.6 4.4 7.4 92 0.6 SW 19 28 10 15 1016.0 1014.7 6.0
03/07:00pm 8.3 4.8 7.4 94 0.4 SSW 15 24 8 13 1015.4 1014.1 6.0
03/06:30pm 8.8 5.0 7.6 92 0.6 WSW 17 20 9 11 1014.8 1013.5 4.6
03/06:00pm 8.0 4.1 7.1 94 0.4 WSW 17 22 9 12 1014.3 1012.9 4.6
03/05:30pm 7.5 2.0 6.1 91 0.7 SW 24 35 13 19 1013.8 1012.5 4.4
03/05:00pm 9.2 6.5 7.5 89 0.8 SW 11 13 6 7 1012.8 1011.4 1.0
03/04:30pm 10.6 6.0 6.6 76 2.0 WSW 20 28 11 15 1012.2 1010.9 0.4
03/04:00pm 10.8 6.2 6.7 76 2.0 WSW 20 30 11 16 1011.6 1010.2 0.4
03/03:30pm 10.4 5.8 6.5 77 1.9 WSW 20 28 11 15 1011.5 1010.1 0.4
03/03:00pm 10.5 5.3 5.5 71 2.4 WSW 22 37 12 20 1011.1 1009.7 0.4
03/02:30pm 9.9 6.0 7.3 84 1.3 WSW 17 30 9 16 1010.9 1009.5 0.4
03/02:00pm 9.8 5.5 6.9 82 1.4 W 19 24 10 13 1010.6 1009.3 0.4
03/01:30pm 11.2 5.3 5.9 70 2.6 W 26 33 14 18 1010.2 1008.8 0.4
03/01:00pm 11.7 5.4 7.4 75 2.2 WNW 30 41 16 22 1010.3 1009.0 0.4
03/12:30pm 10.8 5.1 6.7 76 2.0 W 26 37 14 20 1010.5 1009.2 0.4
03/12:00pm 11.3 5.4 7.6 78 1.9 WNW 28 37 15 20 1010.5 1009.2 0.4
03/11:52am 11.1 5.3 7.8 80 1.7 WNW 28 39 15 21 1010.6 1009.3 0.4
03/11:30am 9.4 5.3 6.3 81 1.5 W 17 20 9 11 1010.9 1009.5 0.4
03/11:00am 8.4 3.6 5.5 82 1.4 W 20 26 11 14 1011.3 1009.9 0.2
03/10:30am 8.4 2.2 6.0 85 1.1 WNW 28 37 15 20 1011.1 1009.7 0.0
03/10:00am 10.3 4.0 4.0 65 2.9 NW 26 39 14 21 1010.6 1009.3 0.0
03/09:30am 10.9 5.5 4.4 64 3.0 NNW 22 28 12 15 1010.2 1008.8 0.0
03/09:00am 10.9 6.5 5.0 67 2.8 NNW 17 26 9 14 1010.2 1008.8 7.2
03/08:30am 10.2 6.5 4.4 67 2.7 N 13 19 7 10 1010.1 1008.7 7.2
03/08:00am 8.5 4.7 3.9 73 2.1 N 13 17 7 9 1010.0 1008.6 7.2
03/07:30am 8.9 4.9 2.7 65 2.7 NNE 13 15 7 8 1009.6 1008.2 7.2
03/07:00am 9.5 5.4 2.1 60 3.2 NW 13 17 7 9 1008.9 1007.6 7.2
03/06:30am 8.3 3.7 1.5 62 2.9 WNW 15 20 8 11 1008.7 1007.3 7.2
03/06:00am 7.6 3.3 1.0 63 2.8 W 13 17 7 9 1008.3 1006.9 7.2
03/05:30am 9.2 4.8 0.6 55 3.6 SW 13 19 7 10 1008.2 1006.8 7.2
03/05:00am 9.9 4.8 1.0 54 3.8 WSW 17 24 9 13 1007.9 1006.5 7.2
03/04:30am 9.5 4.9 1.4 57 3.5 WSW 15 20 8 11 1008.0 1006.6 7.2
03/04:00am 10.3 4.0 1.4 54 3.9 W 24 37 13 20 1007.7 1006.3 7.2
03/03:30am 10.4 3.2 1.0 52 4.0 W 28 39 15 21 1007.8 1006.4 7.2
03/03:00am 10.6 1.6 0.3 49 4.4 W 37 48 20 26 1007.9 1006.5 7.2
03/02:30am 10.5 3.3 0.5 50 4.3 W 28 41 15 22 1007.9 1006.5 7.2
03/02:00am 11.3 4.0 2.3 54 4.0 WNW 30 41 16 22 1008.3 1006.9 7.2
03/01:30am 11.9 5.8 6.6 70 2.6 WNW 28 39 15 21 1008.6 1007.2 7.2
03/01:00am 12.7 6.7 10.1 84 1.4 NW 32 46 17 25 1008.5 1007.1 7.2
03/12:56am 12.8 7.6 10.2 84 1.4 NW 28 44 15 24 1008.3 1006.9 7.2
03/12:30am 11.5 7.9 10.6 94 0.5 NNW 20 26 11 14 1008.6 1007.2 7.0
03/12:00am 11.4 8.0 10.6 95 0.4 NNW 19 26 10 14 1009.3 1007.9 6.6
 
Date/Time
EST
Temp
°C
App
Temp
°C
Dew
Point
Rel
Hum
%
Delta-T
°C
Wind Press
QNH
hPa
Press
MSL
hPa
Rain
since 9 am
mm
Dir
 
Spd
km/h
Gust
km/h
Spd
kts
Gust
kts
02/11:30pm 11.4 8.3 10.3 93 0.6 NNW 17 26 9 14 1009.3 1007.9 5.2
02/11:00pm 11.4 8.3 10.3 93 0.6 NNW 17 22 9 12 1009.7 1008.3 4.6
02/10:30pm 11.9 7.8 10.0 88 1.0 N 22 32 12 17 1009.4 1008.0 2.8
02/10:01pm 12.0 5.7 9.7 86 1.2 N 33 52 18 28 1009.8 1008.4 2.0
02/10:00pm 12.1 5.4 9.7 85 1.3 N 35 52 19 28 1009.7 1008.3 2.0
02/09:54pm 12.5 6.6 9.1 80 1.8 N 30 52 16 28 1009.8 1008.4 1.6
02/09:30pm 13.3 7.4 7.3 67 3.0 N 28 41 15 22 1009.9 1008.5 0.4
02/09:00pm 15.1 9.0 5.0 51 4.9 N 26 41 14 22 1008.8 1007.4 0.0
02/08:30pm 14.7 9.0 5.0 52 4.7 N 24 35 13 19 1009.6 1008.2 0.0
02/08:00pm 14.7 9.9 4.7 51 4.8 N 19 26 10 14 1010.0 1008.6 0.0
02/07:30pm 15.1 9.7 4.5 49 5.1 NNE 22 32 12 17 1009.8 1008.4 0.0
02/07:00pm 15.3 10.2 4.1 47 5.4 NNE 20 28 11 15 1010.4 1009.1 0.0
02/06:30pm 15.5 10.3 3.6 45 5.7 N 20 30 11 16 1011.0 1009.6 0.0
02/06:00pm 15.7 10.5 3.8 45 5.7 NNE 20 26 11 14 1011.0 1009.6 0.0
02/05:30pm 16.2 10.5 2.9 41 6.3 N 22 30 12 16 1011.3 1009.9 0.0
02/05:00pm 17.0 10.8 2.2 37 6.9 N 24 35 13 19 1011.3 1009.9 0.0
02/04:30pm 18.0 13.4 3.5 38 7.0 NNE 17 26 9 14 1011.1 1009.7 0.0
02/04:00pm 17.4 12.0 2.6 37 7.0 N 20 32 11 17 1011.4 1010.0 0.0
02/03:30pm 17.8 11.6 2.2 35 7.3 N 24 32 13 17 1012.0 1010.7 0.0
02/03:00pm 18.4 12.5 1.9 33 7.7 N 22 33 12 18 1012.3 1011.0 0.0
02/02:30pm 18.5 11.9 -0.3 28 8.4 N 24 35 13 19 1012.8 1011.4 0.0
02/02:00pm 19.9 13.0 0.4 27 9.0 NNW 26 37 14 20 1013.0 1011.7 0.0
02/01:30pm 19.0 13.6 1.1 30 8.3 N 19 32 10 17 1013.7 1012.4 0.0
02/01:00pm 18.3 13.8 2.2 34 7.6 N 15 22 8 12 1014.4 1013.1 0.0
02/12:30pm 18.2 13.8 2.9 36 7.3 N 15 22 8 12 1015.2 1013.9 0.0
02/12:00pm 17.0 12.5 4.0 42 6.3 N 17 22 9 12 1015.7 1014.5 0.0
02/11:30am 15.5 10.6 4.2 47 5.4 N 19 26 10 14 1016.4 1015.1 0.0

Other Formats:

Comma delimited format used in spreadsheet applications
http://www.bom.gov.au/fwo/IDN60801/IDN60801.95728.axf

JavaScript Object Notation format (JSON) in row-major order
http://www.bom.gov.au/fwo/IDN60801/IDN60801.95728.json